sensor_id;sensor_type;location;lat;lon;timestamp;P1;durP1;ratioP1;P2;durP2;ratioP2
42670;SDS011;28283;55.426;37.756;2023-04-24T00:01:12;5.47;;;4.88;;
42670;SDS011;28283;55.426;37.756;2023-04-24T00:06:13;7.30;;;5.50;;
42670;SDS011;28283;55.426;37.756;2023-04-24T00:11:14;8.33;;;5.07;;
42670;SDS011;28283;55.426;37.756;2023-04-24T00:16:14;7.13;;;5.03;;
42670;SDS011;28283;55.426;37.756;2023-04-24T00:21:15;6.00;;;4.95;;
42670;SDS011;28283;55.426;37.756;2023-04-24T00:26:17;9.27;;;5.50;;
42670;SDS011;28283;55.426;37.756;2023-04-24T00:31:18;7.63;;;5.07;;
42670;SDS011;28283;55.426;37.756;2023-04-24T00:36:19;10.00;;;5.50;;
42670;SDS011;28283;55.426;37.756;2023-04-24T00:41:21;7.35;;;5.75;;
42670;SDS011;28283;55.426;37.756;2023-04-24T00:46:22;9.77;;;5.88;;
42670;SDS011;28283;55.426;37.756;2023-04-24T00:51:22;12.37;;;5.40;;
42670;SDS011;28283;55.426;37.756;2023-04-24T00:56:24;9.52;;;5.85;;
42670;SDS011;28283;55.426;37.756;2023-04-24T01:01:25;13.13;;;6.28;;
42670;SDS011;28283;55.426;37.756;2023-04-24T01:06:29;8.20;;;6.60;;
42670;SDS011;28283;55.426;37.756;2023-04-24T01:11:33;9.60;;;6.60;;
42670;SDS011;28283;55.426;37.756;2023-04-24T01:16:33;7.87;;;7.00;;
42670;SDS011;28283;55.426;37.756;2023-04-24T01:21:36;8.43;;;6.72;;
42670;SDS011;28283;55.426;37.756;2023-04-24T01:26:37;14.77;;;7.40;;
42670;SDS011;28283;55.426;37.756;2023-04-24T01:31:38;8.17;;;6.73;;
42670;SDS011;28283;55.426;37.756;2023-04-24T01:36:40;9.50;;;7.60;;
42670;SDS011;28283;55.426;37.756;2023-04-24T01:41:42;9.15;;;7.45;;
42670;SDS011;28283;55.426;37.756;2023-04-24T01:46:42;9.73;;;6.80;;
42670;SDS011;28283;55.426;37.756;2023-04-24T01:51:43;8.47;;;7.53;;
42670;SDS011;28283;55.426;37.756;2023-04-24T01:56:44;14.20;;;7.93;;
42670;SDS011;28283;55.426;37.756;2023-04-24T02:01:46;8.65;;;6.60;;
42670;SDS011;28283;55.426;37.756;2023-04-24T02:06:47;9.70;;;7.00;;
42670;SDS011;28283;55.426;37.756;2023-04-24T02:11:47;10.83;;;7.87;;
42670;SDS011;28283;55.426;37.756;2023-04-24T02:16:48;11.37;;;7.30;;
42670;SDS011;28283;55.426;37.756;2023-04-24T02:21:49;9.50;;;7.30;;
42670;SDS011;28283;55.426;37.756;2023-04-24T02:26:50;8.55;;;7.65;;
42670;SDS011;28283;55.426;37.756;2023-04-24T02:31:51;8.07;;;6.77;;
42670;SDS011;28283;55.426;37.756;2023-04-24T02:36:51;12.67;;;6.60;;
42670;SDS011;28283;55.426;37.756;2023-04-24T02:41:53;12.18;;;7.28;;
42670;SDS011;28283;55.426;37.756;2023-04-24T02:46:55;15.48;;;6.88;;
42670;SDS011;28283;55.426;37.756;2023-04-24T02:51:55;9.20;;;6.93;;
42670;SDS011;28283;55.426;37.756;2023-04-24T02:56:56;10.70;;;7.27;;
42670;SDS011;28283;55.426;37.756;2023-04-24T03:01:57;9.98;;;6.75;;
42670;SDS011;28283;55.426;37.756;2023-04-24T03:06:57;12.70;;;6.43;;
42670;SDS011;28283;55.426;37.756;2023-04-24T03:11:58;14.30;;;7.05;;
42670;SDS011;28283;55.426;37.756;2023-04-24T03:17:00;10.43;;;6.32;;
42670;SDS011;28283;55.426;37.756;2023-04-24T03:27:03;7.50;;;5.55;;
42670;SDS011;28283;55.426;37.756;2023-04-24T03:32:04;8.82;;;5.70;;
42670;SDS011;28283;55.426;37.756;2023-04-24T03:37:04;8.37;;;6.43;;
42670;SDS011;28283;55.426;37.756;2023-04-24T03:42:05;9.80;;;5.40;;
42670;SDS011;28283;55.426;37.756;2023-04-24T03:47:05;8.00;;;5.40;;
42670;SDS011;28283;55.426;37.756;2023-04-24T03:52:06;10.77;;;5.63;;
42670;SDS011;28283;55.426;37.756;2023-04-24T03:57:07;12.30;;;4.80;;
42670;SDS011;28283;55.426;37.756;2023-04-24T04:02:07;11.47;;;5.03;;
42670;SDS011;28283;55.426;37.756;2023-04-24T04:07:08;13.77;;;5.18;;
42670;SDS011;28283;55.426;37.756;2023-04-24T04:12:09;10.00;;;4.70;;
42670;SDS011;28283;55.426;37.756;2023-04-24T04:17:10;4.97;;;4.30;;
42670;SDS011;28283;55.426;37.756;2023-04-24T04:22:11;9.63;;;5.20;;
42670;SDS011;28283;55.426;37.756;2023-04-24T04:27:11;8.53;;;4.87;;
42670;SDS011;28283;55.426;37.756;2023-04-24T04:32:13;8.00;;;4.20;;
42670;SDS011;28283;55.426;37.756;2023-04-24T04:37:13;8.50;;;4.27;;
42670;SDS011;28283;55.426;37.756;2023-04-24T04:42:14;15.07;;;4.70;;
42670;SDS011;28283;55.426;37.756;2023-04-24T04:47:15;7.65;;;3.97;;
42670;SDS011;28283;55.426;37.756;2023-04-24T04:52:17;8.18;;;4.25;;
42670;SDS011;28283;55.426;37.756;2023-04-24T04:57:18;9.43;;;4.10;;
42670;SDS011;28283;55.426;37.756;2023-04-24T05:02:20;13.45;;;3.72;;
42670;SDS011;28283;55.426;37.756;2023-04-24T05:07:21;11.13;;;4.07;;
42670;SDS011;28283;55.426;37.756;2023-04-24T05:12:21;6.83;;;4.93;;
42670;SDS011;28283;55.426;37.756;2023-04-24T05:17:22;5.10;;;3.78;;
42670;SDS011;28283;55.426;37.756;2023-04-24T05:22:23;7.57;;;3.58;;
42670;SDS011;28283;55.426;37.756;2023-04-24T05:27:24;5.07;;;3.83;;
42670;SDS011;28283;55.426;37.756;2023-04-24T05:32:25;4.05;;;3.30;;
42670;SDS011;28283;55.426;37.756;2023-04-24T05:37:27;5.78;;;3.75;;
42670;SDS011;28283;55.426;37.756;2023-04-24T05:42:27;5.63;;;3.60;;
42670;SDS011;28283;55.426;37.756;2023-04-24T05:47:28;5.70;;;3.20;;
42670;SDS011;28283;55.426;37.756;2023-04-24T05:52:29;6.45;;;3.83;;
42670;SDS011;28283;55.426;37.756;2023-04-24T05:57:30;8.60;;;3.73;;
42670;SDS011;28283;55.426;37.756;2023-04-24T06:02:30;5.93;;;3.13;;
42670;SDS011;28283;55.426;37.756;2023-04-24T06:07:32;11.60;;;3.10;;
42670;SDS011;28283;55.426;37.756;2023-04-24T06:12:33;6.82;;;2.63;;
42670;SDS011;28283;55.426;37.756;2023-04-24T06:17:35;6.10;;;2.75;;
42670;SDS011;28283;55.426;37.756;2023-04-24T06:22:36;5.50;;;2.53;;
42670;SDS011;28283;55.426;37.756;2023-04-24T06:27:37;10.30;;;3.08;;
42670;SDS011;28283;55.426;37.756;2023-04-24T06:37:41;3.20;;;2.70;;
42670;SDS011;28283;55.426;37.756;2023-04-24T06:48:03;3.37;;;3.03;;
42670;SDS011;28283;55.426;37.756;2023-04-24T06:53:04;3.92;;;2.22;;
42670;SDS011;28283;55.426;37.756;2023-04-24T06:58:05;5.10;;;1.88;;
42670;SDS011;28283;55.426;37.756;2023-04-24T07:03:06;2.97;;;2.35;;
42670;SDS011;28283;55.426;37.756;2023-04-24T07:08:07;7.43;;;2.50;;
42670;SDS011;28283;55.426;37.756;2023-04-24T07:13:08;6.10;;;1.83;;
42670;SDS011;28283;55.426;37.756;2023-04-24T07:18:09;4.55;;;2.35;;
42670;SDS011;28283;55.426;37.756;2023-04-24T07:23:13;5.82;;;2.30;;
42670;SDS011;28283;55.426;37.756;2023-04-24T07:28:13;6.05;;;2.60;;
42670;SDS011;28283;55.426;37.756;2023-04-24T07:33:14;7.30;;;2.13;;
42670;SDS011;28283;55.426;37.756;2023-04-24T07:38:15;7.00;;;2.10;;
42670;SDS011;28283;55.426;37.756;2023-04-24T07:43:15;8.48;;;2.38;;
42670;SDS011;28283;55.426;37.756;2023-04-24T07:53:17;4.95;;;2.33;;
42670;SDS011;28283;55.426;37.756;2023-04-24T07:58:18;12.57;;;3.97;;
42670;SDS011;28283;55.426;37.756;2023-04-24T08:03:19;7.13;;;2.83;;
42670;SDS011;28283;55.426;37.756;2023-04-24T08:13:21;3.43;;;2.57;;
42670;SDS011;28283;55.426;37.756;2023-04-24T08:18:22;3.22;;;2.83;;
42670;SDS011;28283;55.426;37.756;2023-04-24T08:28:23;4.22;;;2.35;;
42670;SDS011;28283;55.426;37.756;2023-04-24T08:38:24;3.13;;;2.70;;
42670;SDS011;28283;55.426;37.756;2023-04-24T08:48:26;3.95;;;2.53;;
42670;SDS011;28283;55.426;37.756;2023-04-24T08:53:27;5.38;;;2.78;;
42670;SDS011;28283;55.426;37.756;2023-04-24T09:03:29;2.28;;;2.08;;
42670;SDS011;28283;55.426;37.756;2023-04-24T09:08:30;4.70;;;2.35;;
42670;SDS011;28283;55.426;37.756;2023-04-24T09:13:31;4.05;;;2.58;;
42670;SDS011;28283;55.426;37.756;2023-04-24T09:18:32;5.22;;;3.35;;
42670;SDS011;28283;55.426;37.756;2023-04-24T09:23:35;12.45;;;3.70;;
42670;SDS011;28283;55.426;37.756;2023-04-24T09:33:38;9.67;;;4.87;;
42670;SDS011;28283;55.426;37.756;2023-04-24T09:43:39;3.50;;;2.57;;
